Time;durP1;ratioP1;P1;durP2;ratioP2;P2;SDS_P1;SDS_P2;PMS_P1;PMS_P2;Temp;Humidity;BMP_temperature;BMP_pressure;BME280_temperature;BME280_humidity;BME280_pressure;Samples;Min_cycle;Max_cycle;Signal;HPM_P1;HPM_P2
2022/04/09 00:01:32;;;;;;;3.50;3.20;;;7.70;1.00;;;;;;5096835;28;20170;-57
2022/04/09 00:03:58;;;;;;;4.23;2.87;;;7.40;1.00;;;;;;5102483;28;20233;-57
2022/04/09 00:06:23;;;;;;;3.73;3.43;;;7.20;1.00;;;;;;5102432;28;20286;-57
2022/04/09 00:08:49;;;;;;;6.13;3.77;;;7.20;1.00;;;;;;5105086;28;20672;-57
2022/04/09 00:11:14;;;;;;;4.00;3.50;;;7.30;1.00;;;;;;5100104;28;20216;-58
2022/04/09 00:13:41;;;;;;;3.37;3.07;;;7.30;1.00;;;;;;5103349;28;20647;-58
2022/04/09 00:18:32;;;;;;;5.13;3.33;;;7.50;1.00;;;;;;5101418;28;20444;-58
2022/04/09 00:20:58;;;;;;;4.33;3.00;;;7.70;1.00;;;;;;5110215;28;20786;-59
2022/04/09 00:23:23;;;;;;;2.53;2.30;;;7.70;1.00;;;;;;5106863;28;20190;-58
2022/04/09 00:25:50;;;;;;;4.57;2.43;;;7.50;1.00;;;;;;5106225;28;20193;-57
2022/04/09 00:28:15;;;;;;;2.27;1.90;;;7.60;1.00;;;;;;5105496;28;20189;-57
2022/04/09 00:30:41;;;;;;;2.43;1.80;;;7.40;1.00;;;;;;5102966;28;20957;-58
2022/04/09 00:33:07;;;;;;;1.80;1.60;;;7.50;1.00;;;;;;5101073;28;20179;-59
2022/04/09 00:35:33;;;;;;;2.07;1.87;;;7.50;1.00;;;;;;5108456;28;20213;-57
2022/04/09 00:37:59;;;;;;;3.60;2.30;;;7.60;1.00;;;;;;5104444;28;20951;-57
2022/04/09 00:40:26;;;;;;;3.00;2.40;;;7.60;1.00;;;;;;5108355;28;20174;-57
2022/04/09 00:42:52;;;;;;;2.67;2.30;;;7.70;1.00;;;;;;5101720;28;20843;-57
2022/04/09 00:45:17;;;;;;;2.90;2.70;;;7.80;1.00;;;;;;5095270;28;20469;-57
2022/04/09 00:47:44;;;;;;;3.57;2.37;;;7.70;1.00;;;;;;5105252;28;21031;-57
2022/04/09 00:50:11;;;;;;;3.50;2.80;;;7.70;1.00;;;;;;5102958;28;20206;-58
2022/04/09 00:52:42;;;;;;;4.70;2.50;;;7.60;1.00;;;;;;5102599;28;20472;-58
2022/04/09 00:55:08;;;;;;;2.50;2.27;;;7.30;1.00;;;;;;5109371;28;20455;-61
2022/04/09 00:57:35;;;;;;;3.67;3.20;;;7.30;1.00;;;;;;5108531;28;20439;-57
2022/04/09 01:00:11;;;;;;;2.53;2.10;;;7.40;1.00;;;;;;5103783;28;20432;-57
2022/04/09 01:02:41;;;;;;;2.60;2.40;;;7.40;1.00;;;;;;5098136;28;20444;-58
2022/04/09 01:05:07;;;;;;;3.40;3.03;;;7.50;1.00;;;;;;5104163;28;20452;-58
2022/04/09 01:07:34;;;;;;;4.50;3.13;;;7.70;1.00;;;;;;5106584;28;20443;-58
2022/04/09 01:10:00;;;;;;;3.40;2.80;;;7.70;1.00;;;;;;5104734;28;20548;-58
2022/04/09 01:12:27;;;;;;;4.13;2.80;;;7.80;1.00;;;;;;5107365;28;20500;-57
2022/04/09 01:14:52;;;;;;;3.43;2.40;;;7.80;1.00;;;;;;5100553;28;20479;-58
2022/04/09 01:17:18;;;;;;;4.30;3.10;;;7.60;1.00;;;;;;5105000;28;20965;-58
2022/04/09 01:19:44;;;;;;;3.27;2.77;;;7.60;1.00;;;;;;5102821;28;20182;-57
2022/04/09 01:22:09;;;;;;;3.70;2.90;;;7.60;1.00;;;;;;5096496;28;20174;-58
2022/04/09 01:24:35;;;;;;;4.57;3.33;;;7.70;1.00;;;;;;5099328;28;20183;-59
2022/04/09 01:27:00;;;;;;;3.10;2.90;;;7.70;1.00;;;;;;5099537;28;20709;-57
2022/04/09 01:29:26;;;;;;;4.57;3.13;;;7.70;1.00;;;;;;5100805;28;20199;-56
2022/04/09 01:31:52;;;;;;;3.10;2.40;;;7.80;1.00;;;;;;5106981;28;20232;-58
2022/04/09 01:34:17;;;;;;;3.87;2.47;;;7.90;1.00;;;;;;5113390;28;20186;-58
2022/04/09 01:36:43;;;;;;;4.03;2.47;;;7.90;1.00;;;;;;5100749;28;20660;-59
2022/04/09 01:39:09;;;;;;;2.90;2.47;;;7.80;1.00;;;;;;5107335;28;20727;-58
2022/04/09 01:41:34;;;;;;;5.40;3.63;;;;;;;;;;5107691;28;20250;-58
2022/04/09 01:44:00;;;;;;;3.17;2.87;;;7.60;1.00;;;;;;5111956;28;20180;-58
2022/04/09 01:46:25;;;;;;;5.07;2.70;;;7.60;1.00;;;;;;5099824;28;20455;-58
2022/04/09 01:48:51;;;;;;;5.23;3.20;;;;;;;;;;5103841;28;20410;-56
2022/04/09 01:51:17;;;;;;;3.50;2.13;;;7.80;1.00;;;;;;5103192;28;20217;-58
2022/04/09 01:53:42;;;;;;;3.63;3.20;;;7.70;1.00;;;;;;5100013;28;20448;-57
2022/04/09 01:56:08;;;;;;;3.90;3.30;;;;;;;;;;5108139;28;20293;-57
2022/04/09 01:58:34;;;;;;;4.30;2.77;;;7.50;1.00;;;;;;5105610;28;20635;-58
2022/04/09 02:00:59;;;;;;;4.73;3.00;;;7.20;1.00;;;;;;5101264;28;20441;-57
2022/04/09 02:03:26;;;;;;;4.80;3.53;;;7.10;1.00;;;;;;5099271;28;20228;-57
2022/04/09 02:05:52;;;;;;;5.00;3.83;;;6.90;1.00;;;;;;5095468;28;20183;-57
2022/04/09 02:08:17;;;;;;;3.97;3.50;;;6.90;1.00;;;;;;5099640;28;20428;-58
2022/04/09 02:10:43;;;;;;;4.10;3.67;;;7.00;1.00;;;;;;5099952;28;20608;-56
2022/04/09 02:13:13;;;;;;;5.13;3.47;;;7.00;1.00;;;;;;5103130;28;20597;-58
2022/04/09 02:15:38;;;;;;;4.57;4.07;;;8.10;1.00;;;;;;5109611;28;20217;-57
2022/04/09 02:18:05;;;;;;;5.10;2.97;;;7.10;1.00;;;;;;5102426;28;20449;-58
2022/04/09 02:20:32;;;;;;;4.50;3.30;;;7.10;1.00;;;;;;5103260;28;20170;-58
2022/04/09 02:22:57;;;;;;;4.63;3.67;;;7.10;1.00;;;;;;5105306;28;20436;-58
2022/04/09 02:25:23;;;;;;;3.93;3.50;;;7.10;1.00;;;;;;5107272;28;20450;-58
2022/04/09 02:27:48;;;;;;;4.40;4.00;;;7.10;1.00;;;;;;5106363;28;20182;-56
2022/04/09 02:30:14;;;;;;;6.33;4.20;;;7.00;1.00;;;;;;5106369;28;20648;-57
2022/04/09 02:32:51;;;;;;;7.47;4.70;;;7.10;1.00;;;;;;5100762;28;20177;-57
2022/04/09 02:35:18;;;;;;;6.47;4.17;;;7.10;1.00;;;;;;5107664;28;20544;-56
2022/04/09 02:37:44;;;;;;;4.70;4.17;;;7.00;1.00;;;;;;5106968;28;20483;-58
2022/04/09 02:40:10;;;;;;;7.87;4.33;;;6.90;1.00;;;;;;5103746;28;20450;-56
2022/04/09 02:42:37;;;;;;;7.87;5.10;;;6.90;1.00;;;;;;5104495;28;20431;-57
2022/04/09 02:45:04;;;;;;;5.00;4.33;;;6.90;1.00;;;;;;5110829;28;20432;-57
2022/04/09 02:47:30;;;;;;;7.10;5.10;;;6.80;1.00;;;;;;5103492;28;20933;-55
2022/04/09 02:49:56;;;;;;;6.70;5.30;;;6.90;1.00;;;;;;5100375;28;20443;-57
2022/04/09 02:52:21;;;;;;;5.20;4.47;;;6.90;1.00;;;;;;5100626;28;20462;-55
2022/04/09 02:54:47;;;;;;;7.40;4.97;;;6.90;1.00;;;;;;5098346;28;20224;-58
2022/04/09 02:57:13;;;;;;;6.30;4.90;;;;;;;;;;5104252;28;20650;-57
2022/04/09 02:59:39;;;;;;;7.30;5.00;;;7.00;1.00;;;;;;5109158;28;20439;-57
2022/04/09 03:02:04;;;;;;;7.50;5.53;;;6.80;1.00;;;;;;5107356;28;20450;-58
2022/04/09 03:04:30;;;;;;;7.20;5.93;;;6.80;1.00;;;;;;5106053;28;20231;-60
2022/04/09 03:06:56;;;;;;;5.63;5.13;;;;;;;;;;5105637;28;20588;-57
2022/04/09 03:09:22;;;;;;;7.07;6.37;;;6.60;1.00;;;;;;5103240;28;20178;-55
2022/04/09 03:11:48;;;;;;;6.50;5.67;;;6.60;1.00;;;;;;5106305;28;20515;-56
2022/04/09 03:14:13;;;;;;;5.80;5.30;;;6.60;1.00;;;;;;5102705;28;20170;-58
2022/04/09 03:16:39;;;;;;;9.00;7.03;;;6.60;1.00;;;;;;5103713;28;20443;-57
2022/04/09 03:19:04;;;;;;;7.50;6.17;;;6.50;1.00;;;;;;5103964;28;20270;-57
2022/04/09 03:21:30;;;;;;;7.00;6.30;;;6.50;1.00;;;;;;5103416;28;20189;-57
2022/04/09 03:23:55;;;;;;;9.60;6.90;;;6.40;1.00;;;;;;5099487;28;20210;-56
2022/04/09 03:26:21;;;;;;;8.37;6.00;;;6.60;1.00;;;;;;5109414;28;20274;-57
2022/04/09 03:28:47;;;;;;;8.77;5.77;;;6.50;1.00;;;;;;5101793;28;20175;-58
2022/04/09 03:31:16;;;;;;;7.80;6.10;;;6.50;1.00;;;;;;5107698;28;20614;-56
2022/04/09 03:33:42;;;;;;;7.20;5.70;;;6.50;1.00;;;;;;5103965;28;20188;-56
2022/04/09 03:36:27;;;;;;;9.07;7.37;;;6.50;1.00;;;;;;5098626;28;20544;-57
2022/04/09 03:38:53;;;;;;;9.33;6.67;;;6.50;1.00;;;;;;5047633;28;20218;-56
2022/04/09 03:41:18;;;;;;;7.87;7.07;;;6.60;1.00;;;;;;5047592;28;20439;-58
2022/04/09 03:43:44;;;;;;;7.20;6.23;;;6.60;1.00;;;;;;5047567;28;20218;-58
2022/04/09 03:46:10;;;;;;;7.23;6.53;;;6.60;1.00;;;;;;5048061;28;20179;-57
2022/04/09 03:48:35;;;;;;;8.90;6.60;;;6.70;1.00;;;;;;5045873;28;20186;-56
2022/04/09 03:51:01;;;;;;;8.43;7.53;;;6.60;1.00;;;;;;5046510;28;20272;-58
2022/04/09 03:53:26;;;;;;;9.17;7.20;;;;;;;;;;5047149;28;20195;-57
2022/04/09 03:55:52;;;;;;;9.73;6.83;;;6.50;1.00;;;;;;5048794;28;20274;-58
2022/04/09 03:58:19;;;;;;;8.10;6.60;;;6.50;1.00;;;;;;5047092;28;20508;-57
2022/04/09 04:00:45;;;;;;;9.13;5.83;;;6.40;1.00;;;;;;5048189;28;20195;-55
2022/04/09 04:03:11;;;;;;;10.17;7.13;;;6.50;1.00;;;;;;5047397;28;20832;-58
2022/04/09 04:05:37;;;;;;;10.30;7.13;;;6.50;1.00;;;;;;5047082;28;20188;-56
2022/04/09 04:08:06;;;;;;;10.40;7.37;;;6.40;1.00;;;;;;5046982;28;20464;-56
2022/04/09 04:10:34;;;;;;;9.73;7.27;;;6.40;1.00;;;;;;5047475;28;20204;-57
2022/04/09 04:13:00;;;;;;;7.00;6.30;;;6.30;1.00;;;;;;5047395;28;20442;-58
2022/04/09 04:15:26;;;;;;;9.00;8.07;;;6.40;1.00;;;;;;5064526;28;20475;-58
2022/04/09 04:17:51;;;;;;;9.73;8.10;;;6.40;1.00;;;;;;5106384;28;20548;-57
2022/04/09 04:20:17;;;;;;;10.97;6.30;;;6.50;1.00;;;;;;5100660;28;20183;-58
2022/04/09 04:22:43;;;;;;;9.90;7.67;;;6.50;1.00;;;;;;5104394;28;20194;-57
2022/04/09 04:25:09;;;;;;;10.07;7.40;;;6.40;1.00;;;;;;5105446;28;20187;-57
2022/04/09 04:27:42;;;;;;;9.33;6.27;;;6.40;1.00;;;;;;5096505;28;20190;-56
2022/04/09 04:30:08;;;;;;;9.40;5.80;;;6.30;1.00;;;;;;5098488;28;20455;-57
2022/04/09 04:32:33;;;;;;;9.00;6.40;;;6.40;1.00;;;;;;5092522;28;20445;-56
2022/04/09 04:34:59;;;;;;;7.10;5.70;;;6.40;1.00;;;;;;5101716;28;20459;-56
2022/04/09 04:37:25;;;;;;;9.80;5.60;;;6.50;1.00;;;;;;5099063;28;20223;-58
2022/04/09 04:39:50;;;;;;;9.17;6.20;;;6.50;1.00;;;;;;5098492;28;20183;-58
2022/04/09 04:42:16;;;;;;;6.70;6.00;;;;;;;;;;5102971;28;20633;-58
2022/04/09 04:44:42;;;;;;;9.67;6.30;;;6.60;1.00;;;;;;5106361;28;20185;-56
2022/04/09 04:47:07;;;;;;;7.97;5.50;;;9.20;1.00;;;;;;5104993;28;20567;-57
2022/04/09 04:49:34;;;;;;;11.20;5.93;;;6.40;1.00;;;;;;5102082;28;20190;-57
2022/04/09 04:52:00;;;;;;;18.33;6.30;;;6.50;1.00;;;;;;5106065;28;20436;-58
2022/04/09 04:54:26;;;;;;;11.27;5.03;;;6.50;1.00;;;;;;5101708;28;20523;-58
2022/04/09 04:56:51;;;;;;;8.90;4.70;;;6.50;1.00;;;;;;5109384;28;20584;-56
2022/04/09 04:59:18;;;;;;;8.93;4.60;;;6.60;1.00;;;;;;5097487;28;20185;-56
2022/04/09 05:01:43;;;;;;;7.97;4.87;;;6.60;1.00;;;;;;5109751;28;20181;-56
2022/04/09 05:04:10;;;;;;;7.30;4.97;;;6.60;1.00;;;;;;5099081;28;20457;-57
2022/04/09 05:06:35;;;;;;;7.30;5.07;;;6.60;1.00;;;;;;5104029;28;20182;-57
2022/04/09 05:09:01;;;;;;;8.10;4.90;;;6.60;1.00;;;;;;5111318;28;20556;-58
2022/04/09 05:11:26;;;;;;;10.53;4.83;;;6.60;1.00;;;;;;5103971;28;20270;-59
2022/04/09 05:13:52;;;;;;;6.80;4.90;;;;;;;;;;5103001;28;20273;-57
2022/04/09 05:16:18;;;;;;;9.60;5.47;;;6.60;1.00;;;;;;5109372;28;20220;-57
2022/04/09 05:18:43;;;;;;;8.27;4.80;;;6.60;1.00;;;;;;5104384;28;20512;-57
2022/04/09 05:21:09;;;;;;;8.30;5.10;;;6.60;1.00;;;;;;5102962;28;20183;-57
2022/04/09 05:23:34;;;;;;;7.60;4.80;;;6.50;1.00;;;;;;5105134;28;20255;-58
2022/04/09 05:26:00;;;;;;;6.63;4.77;;;;;;;;;;5106775;28;20217;-58
2022/04/09 05:28:26;;;;;;;5.07;4.57;;;6.70;1.00;;;;;;5099705;28;20262;-59
2022/04/09 05:30:51;;;;;;;9.27;4.67;;;6.70;1.00;;;;;;5097726;28;20448;-57
2022/04/09 05:33:18;;;;;;;7.93;4.70;;;6.80;1.00;;;;;;5108299;28;20252;-57
2022/04/09 05:35:44;;;;;;;5.63;4.43;;;;;;;;;;5104958;28;20207;-58
2022/04/09 05:38:09;;;;;;;7.90;4.77;;;6.70;1.00;;;;;;5109480;28;20444;-57
2022/04/09 05:40:36;;;;;;;6.80;3.70;;;6.70;1.00;;;;;;5106833;28;20437;-56
2022/04/09 05:43:02;;;;;;;9.80;4.90;;;6.80;1.00;;;;;;5106934;28;20319;-57
2022/04/09 05:45:28;;;;;;;10.83;4.33;;;6.80;1.00;;;;;;5111439;28;20534;-58
2022/04/09 05:47:54;;;;;;;6.00;3.90;;;7.00;1.00;;;;;;5105702;28;20452;-59
2022/04/09 05:50:19;;;;;;;5.50;3.93;;;7.10;1.00;;;;;;5106717;28;20193;-57
2022/04/09 05:52:45;;;;;;;4.90;3.50;;;7.30;1.00;;;;;;5109485;28;20428;-59
2022/04/09 05:55:11;;;;;;;4.13;3.10;;;7.40;1.00;;;;;;5102187;28;20198;-56
2022/04/09 05:57:36;;;;;;;7.97;3.97;;;7.40;1.00;;;;;;5111802;28;20624;-56
2022/04/09 06:00:05;;;;;;;4.73;3.60;;;7.70;1.00;;;;;;5105254;28;20238;-59
2022/04/09 06:02:30;;;;;;;4.83;3.63;;;7.60;1.00;;;;;;5098689;28;20179;-58
2022/04/09 06:04:57;;;;;;;7.07;3.80;;;7.50;1.00;;;;;;5101753;28;20857;-57
2022/04/09 06:07:23;;;;;;;7.50;3.87;;;7.50;1.00;;;;;;5105231;28;20238;-58
2022/04/09 06:09:50;;;;;;;5.23;4.37;;;7.80;1.00;;;;;;5108000;28;20443;-56
2022/04/09 06:12:16;;;;;;;6.03;3.93;;;7.70;1.00;;;;;;5106265;28;20189;-57
2022/04/09 06:14:41;;;;;;;8.70;4.17;;;7.70;1.00;;;;;;5110844;28;20467;-58
2022/04/09 06:17:07;;;;;;;5.57;3.23;;;7.50;1.00;;;;;;5106300;28;20284;-58
2022/04/09 06:19:34;;;;;;;4.60;3.20;;;7.60;1.00;;;;;;5103061;28;20257;-56
2022/04/09 06:22:01;;;;;;;8.93;3.33;;;;;;;;;;5101950;28;20182;-57
2022/04/09 06:24:27;;;;;;;10.30;4.67;;;;;;;;;;5106833;28;20446;-57
2022/04/09 06:26:52;;;;;;;8.57;2.60;;;7.80;1.00;;;;;;5110950;28;20454;-59
2022/04/09 06:29:18;;;;;;;4.30;2.80;;;7.80;1.00;;;;;;5107461;28;20996;-58
2022/04/09 06:31:47;;;;;;;6.47;2.23;;;7.70;1.00;;;;;;5096673;28;20216;-57
2022/04/09 06:34:15;;;;;;;3.77;3.33;;;7.60;1.00;;;;;;5107216;28;20185;-57
2022/04/09 06:36:41;;;;;;;4.53;3.23;;;7.70;1.00;;;;;;5102814;28;20472;-60
2022/04/09 06:39:07;;;;;;;4.77;2.83;;;7.80;1.00;;;;;;5100356;28;20451;-58
2022/04/09 06:41:33;;;;;;;5.80;2.50;;;7.90;1.00;;;;;;5110363;28;20214;-57
2022/04/09 06:43:59;;;;;;;5.77;2.40;;;7.90;1.00;;;;;;5103276;28;20182;-56
2022/04/09 06:46:25;;;;;;;4.83;3.10;;;7.80;1.00;;;;;;5106169;28;20454;-57
2022/04/09 06:48:51;;;;;;;6.00;2.43;;;7.70;1.00;;;;;;5108180;28;20239;-58
2022/04/09 06:51:16;;;;;;;2.93;2.67;;;7.50;1.00;;;;;;5097183;28;20189;-56
2022/04/09 06:53:42;;;;;;;5.87;2.40;;;7.50;1.00;;;;;;5110472;28;20765;-57
2022/04/09 06:56:10;;;;;;;2.37;2.00;;;7.70;1.00;;;;;;5102928;28;20213;-56
2022/04/09 06:58:36;;;;;;;5.37;2.20;;;8.00;1.00;;;;;;5103906;28;20598;-58
2022/04/09 07:01:09;;;;;;;6.83;3.03;;;;;;;;;;5100387;28;20531;-57
2022/04/09 07:03:34;;;;;;;7.27;2.43;;;8.30;1.00;;;;;;5098164;28;20226;-57
2022/04/09 07:05:59;;;;;;;7.40;2.07;;;8.30;1.00;;;;;;5103446;28;20454;-57
2022/04/09 07:08:25;;;;;;;4.13;2.30;;;8.10;1.00;;;;;;5107279;28;20539;-57
2022/04/09 07:10:51;;;;;;;5.63;2.03;;;8.20;1.00;;;;;;5106561;28;20189;-56
2022/04/09 07:13:16;;;;;;;6.37;2.83;;;8.30;1.00;;;;;;5106135;28;20287;-58
2022/04/09 07:15:42;;;;;;;6.07;2.57;;;8.20;1.00;;;;;;5099454;28;20639;-58
2022/04/09 07:18:08;;;;;;;3.33;3.10;;;8.20;1.00;;;;;;5106731;28;20481;-61
2022/04/09 07:20:35;;;;;;;5.90;2.67;;;4.80;1.00;;;;;;5102231;28;20540;-57
2022/04/09 07:23:02;;;;;;;5.13;2.83;;;8.20;1.00;;;;;;5106221;28;20189;-56
2022/04/09 07:25:28;;;;;;;3.60;3.30;;;7.70;1.00;;;;;;5101577;28;20437;-55
2022/04/09 07:27:54;;;;;;;4.53;4.00;;;7.30;1.00;;;;;;5097047;28;20459;-57
2022/04/09 07:30:21;;;;;;;7.93;3.73;;;6.60;1.00;;;;;;5101662;28;20802;-54
2022/04/09 07:32:47;;;;;;;5.83;3.37;;;6.20;1.00;;;;;;5108246;27;20197;-54
2022/04/09 07:35:16;;;;;;;10.73;2.97;;;6.30;1.00;;;;;;5099809;28;20931;-55
2022/04/09 07:37:45;;;;;;;5.30;4.47;;;6.10;1.00;;;;;;5098627;28;20458;-55
2022/04/09 07:40:12;;;;;;;6.10;5.50;;;6.10;1.00;;;;;;5103699;28;20525;-54
2022/04/09 07:42:39;;;;;;;9.50;6.83;;;6.10;1.00;;;;;;5095493;28;20451;-54
2022/04/09 07:45:05;;;;;;;13.13;7.63;;;6.20;1.00;;;;;;5095932;28;20432;-53
2022/04/09 07:47:31;;;;;;;9.50;6.87;;;;;;;;;;5098701;28;20437;-54
2022/04/09 07:49:57;;;;;;;9.90;7.20;;;6.60;1.00;;;;;;5105171;28;20809;-53
2022/04/09 07:52:23;;;;;;;10.20;8.00;;;6.90;1.00;;;;;;5096238;28;20444;-55
2022/04/09 07:54:48;;;;;;;7.43;6.50;;;7.40;1.00;;;;;;5109155;28;20209;-54
2022/04/09 07:57:14;;;;;;;10.10;8.17;;;7.70;1.00;;;;;;5100912;28;20183;-54
2022/04/09 07:59:40;;;;;;;8.63;7.73;;;7.80;1.00;;;;;;5102471;28;20187;-53
2022/04/09 08:02:05;;;;;;;11.50;8.00;;;7.70;1.00;;;;;;5108647;28;21000;-54
2022/04/09 08:04:31;;;;;;;14.80;9.87;;;7.70;1.00;;;;;;5104207;28;20933;-54
2022/04/09 08:06:56;;;;;;;9.00;7.90;;;7.50;1.00;;;;;;5095746;28;20182;-55
2022/04/09 08:09:23;;;;;;;9.70;7.30;;;7.00;1.00;;;;;;5107600;28;20204;-54
2022/04/09 08:11:53;;;;;;;10.60;7.57;;;6.60;1.00;;;;;;5099332;28;20441;-54
2022/04/09 08:14:18;;;;;;;13.17;9.90;;;6.60;1.00;;;;;;5102165;28;20194;-55
2022/04/09 08:16:44;;;;;;;11.60;10.07;;;6.50;1.00;;;;;;5091260;28;20460;-53
2022/04/09 08:19:10;;;;;;;16.40;10.73;;;;;;;;;;5097405;28;20909;-54
2022/04/09 08:21:36;;;;;;;15.27;9.03;;;6.50;1.00;;;;;;5101983;28;20183;-55
2022/04/09 08:24:01;;;;;;;14.37;9.80;;;6.70;1.00;;;;;;5105568;28;20457;-55
2022/04/09 08:26:27;;;;;;;10.63;9.40;;;6.80;1.00;;;;;;5108154;28;20692;-54
2022/04/09 08:28:52;;;;;;;12.07;9.83;;;7.00;1.00;;;;;;5101213;28;20695;-56
2022/04/09 08:31:19;;;;;;;11.40;9.10;;;7.10;1.00;;;;;;5082494;28;20791;-57
2022/04/09 08:33:47;;;;;;;12.20;9.20;;;7.50;1.00;;;;;;5095140;28;20221;-55
2022/04/09 08:36:13;;;;;;;11.17;8.10;;;7.70;1.00;;;;;;5093966;28;20482;-55
2022/04/09 08:38:39;;;;;;;13.10;9.97;;;7.70;1.00;;;;;;5099352;28;20477;-56
2022/04/09 08:41:15;;;;;;;10.30;9.17;;;7.90;1.00;;;;;;5099796;28;20429;-55
2022/04/09 08:43:41;;;;;;;10.50;9.33;;;8.20;1.00;;;;;;5101681;28;20639;-55
2022/04/09 08:46:13;;;;;;;13.73;9.47;;;8.40;1.00;;;;;;5096816;28;20439;-55
2022/04/09 08:48:41;;;;;;;11.60;8.53;;;8.60;1.00;;;;;;5098955;28;20968;-55
2022/04/09 08:51:13;;;;;;;8.67;7.07;;;8.80;1.00;;;;;;5092738;28;20443;-54
2022/04/09 08:53:40;;;;;;;14.23;7.97;;;8.80;1.00;;;;;;5102461;28;20448;-54
2022/04/09 08:56:15;;;;;;;8.63;7.20;;;;;;;;;;5106958;28;20988;-56
2022/04/09 08:58:40;;;;;;;10.17;6.53;;;8.90;1.00;;;;;;5095539;28;20832;-55
2022/04/09 09:01:12;;;;;;;9.93;7.73;;;9.00;1.00;;;;;;5108086;28;20527;-54
2022/04/09 09:03:38;;;;;;;6.60;5.97;;;9.10;1.00;;;;;;5107034;28;20214;-56
2022/04/09 09:06:30;;;;;;;5.60;5.10;;;9.40;1.00;;;;;;5104660;28;20454;-56
2022/04/09 09:09:08;;;;;;;7.27;4.30;;;9.40;1.00;;;;;;5100356;28;20446;-57
2022/04/09 09:11:47;;;;;;;7.90;4.60;;;9.10;1.00;;;;;;5104704;28;20448;-56
2022/04/09 09:14:25;;;;;;;4.63;3.70;;;8.70;1.00;;;;;;5104177;28;20440;-57
2022/04/09 09:16:51;;;;;;;3.87;3.57;;;;;;;;;;5104888;28;20468;-56
2022/04/09 09:19:17;;;;;;;3.60;3.20;;;9.10;1.00;;;;;;5102872;28;20528;-54
2022/04/09 09:21:55;;;;;;;3.10;2.50;;;9.20;1.00;;;;;;5109264;28;20528;-54
2022/04/09 09:24:21;;;;;;;2.90;1.80;;;;;;;;;;5095981;28;20213;-56
2022/04/09 09:26:57;;;;;;;6.20;2.70;;;9.40;1.00;;;;;;5098991;28;20871;-57
2022/04/09 09:29:28;;;;;;;2.23;2.03;;;9.20;1.00;;;;;;5090822;28;20478;-56
2022/04/09 09:31:56;;;;;;;2.73;2.40;;;8.90;1.00;;;;;;5095394;28;20504;-56
2022/04/09 09:34:21;;;;;;;4.70;2.30;;;8.60;1.00;;;;;;5097974;28;20987;-56
2022/04/09 09:36:49;;;;;;;2.87;2.60;;;8.90;1.00;;;;;;5105009;28;20486;-55
2022/04/09 09:39:22;;;;;;;3.80;2.63;;;9.00;1.00;;;;;;5095213;28;20186;-54
2022/04/09 09:41:56;;;;;;;2.97;2.33;;;9.20;1.00;;;;;;5102647;28;20428;-55
2022/04/09 09:44:26;;;;;;;2.83;2.40;;;9.20;1.00;;;;;;5102498;28;20526;-56
2022/04/09 09:46:54;;;;;;;2.43;2.23;;;8.90;1.00;;;;;;5101528;28;20957;-55
2022/04/09 09:49:22;;;;;;;5.53;3.00;;;8.30;1.00;;;;;;5100463;28;20509;-57
2022/04/09 09:52:08;;;;;;;4.07;3.10;;;8.40;1.00;;;;;;5102006;28;20432;-56
2022/04/09 09:54:52;;;;;;;4.73;2.73;;;8.60;1.00;;;;;;5105644;28;20459;-56
2022/04/09 09:57:20;;;;;;;3.77;3.00;;;8.80;1.00;;;;;;5106464;28;20945;-57
2022/04/09 09:59:46;;;;;;;4.10;3.33;;;8.90;1.00;;;;;;5103215;28;20431;-55
2022/04/09 10:02:17;;;;;;;3.43;3.13;;;9.40;1.00;;;;;;5108242;28;20451;-56
2022/04/09 10:04:44;;;;;;;6.80;3.00;;;9.80;1.00;;;;;;5101297;28;20471;-56
2022/04/09 10:07:10;;;;;;;3.27;2.97;;;10.10;1.00;;;;;;5100020;28;20435;-58
2022/04/09 10:09:35;;;;;;;3.20;2.90;;;10.20;1.00;;;;;;5105446;28;20471;-57
2022/04/09 10:12:05;;;;;;;3.80;3.20;;;10.20;1.00;;;;;;5093904;28;20503;-55
2022/04/09 10:14:32;;;;;;;2.73;2.40;;;9.80;1.00;;;;;;5104973;28;20187;-57
2022/04/09 10:17:00;;;;;;;2.10;1.80;;;9.90;1.00;;;;;;5105090;28;20959;-57
2022/04/09 10:19:27;;;;;;;3.30;1.77;;;9.80;1.00;;;;;;5105242;28;20424;-57
2022/04/09 10:21:53;;;;;;;6.80;2.37;;;9.70;1.00;;;;;;5107943;28;20477;-55
2022/04/09 10:24:25;;;;;;;2.53;1.63;;;10.00;1.00;;;;;;5106459;28;20437;-57
2022/04/09 10:26:53;;;;;;;3.70;2.00;;;10.50;1.00;;;;;;5102474;28;20434;-56
2022/04/09 10:29:18;;;;;;;5.57;2.10;;;10.40;1.00;;;;;;5107249;27;20464;-58
2022/04/09 10:31:51;;;;;;;2.00;1.80;;;10.30;1.00;;;;;;5104872;28;20411;-56
2022/04/09 10:34:17;;;;;;;3.90;2.23;;;9.90;1.00;;;;;;5101615;28;20181;-62
2022/04/09 10:36:43;;;;;;;2.83;2.20;;;9.40;1.00;;;;;;5111445;28;20455;-57
2022/04/09 10:39:22;;;;;;;1.97;1.77;;;9.10;1.00;;;;;;5106963;28;20597;-56
2022/04/09 10:41:49;;;;;;;3.10;2.20;;;8.90;1.00;;;;;;5101802;28;20643;-56
2022/04/09 10:44:36;;;;;;;6.77;2.90;;;8.40;1.00;;;;;;5112378;27;21027;-57
2022/04/09 10:47:03;;;;;;;4.07;2.53;;;8.20;1.00;;;;;;5101680;28;20439;-64
2022/04/09 10:49:30;;;;;;;3.70;2.80;;;8.30;1.00;;;;;;5105971;28;20442;-54
2022/04/09 10:52:20;;;;;;;4.13;3.73;;;9.10;1.00;;;;;;5093453;28;20448;-56
2022/04/09 10:55:20;;;;;;;4.50;3.40;;;9.80;1.00;;;;;;5107371;28;20443;-55
2022/04/09 10:57:48;;;;;;;4.00;3.60;;;10.40;1.00;;;;;;5101495;28;20451;-56
2022/04/09 11:00:22;;;;;;;2.73;2.53;;;10.60;1.00;;;;;;5101282;28;20429;-56
2022/04/09 11:03:05;;;;;;;2.80;2.40;;;10.10;1.00;;;;;;5105029;28;20492;-58
2022/04/09 11:05:31;;;;;;;4.33;2.33;;;9.00;1.00;;;;;;5103862;28;20436;-54
2022/04/09 11:08:19;;;;;;;2.27;2.00;;;7.60;1.00;;;;;;5099254;28;20952;-56
2022/04/09 11:10:44;;;;;;;2.90;1.97;;;7.00;1.00;;;;;;5102981;28;20765;-54
2022/04/09 11:13:12;;;;;;;2.70;1.57;;;;;;;;;;5107792;28;20531;-55
2022/04/09 11:15:43;;;;;;;1.60;1.50;;;7.20;1.00;;;;;;5104275;28;20356;-55
2022/04/09 11:18:09;;;;;;;2.20;1.77;;;7.50;1.00;;;;;;5109459;28;20824;-57
2022/04/09 11:20:37;;;;;;;4.70;2.20;;;7.70;1.00;;;;;;5103355;28;20444;-55
2022/04/09 11:23:16;;;;;;;5.27;2.43;;;7.60;1.00;;;;;;5102477;28;20444;-55
2022/04/09 11:25:44;;;;;;;3.10;2.27;;;7.70;1.00;;;;;;5098248;27;20794;-54
2022/04/09 11:28:17;;;;;;;2.87;2.00;;;8.00;1.00;;;;;;5095364;28;20565;-55
2022/04/09 11:31:00;;;;;;;2.20;2.00;;;8.30;1.00;;;;;;5098312;28;21116;-52
2022/04/09 11:33:26;;;;;;;4.30;1.77;;;;;;;;;;5100489;28;20458;-54
2022/04/09 11:35:52;;;;;;;2.10;1.90;;;8.30;1.00;;;;;;5102037;28;20493;-56
2022/04/09 11:38:18;;;;;;;2.47;1.80;;;8.30;1.00;;;;;;5098024;28;20553;-54
2022/04/09 11:40:46;;;;;;;3.00;2.03;;;8.40;1.00;;;;;;5096158;28;20200;-56
2022/04/09 11:43:16;;;;;;;2.20;1.90;;;8.80;1.00;;;;;;5104768;28;20700;-55
2022/04/09 11:45:42;;;;;;;2.67;2.47;;;9.10;1.00;;;;;;5105480;28;20446;-54
2022/04/09 11:48:17;;;;;;;2.37;2.17;;;9.30;1.00;;;;;;5098068;28;20444;-54
2022/04/09 11:50:43;;;;;;;2.60;2.17;;;9.30;1.00;;;;;;5096142;28;20448;-56
2022/04/09 11:53:20;;;;;;;2.33;2.13;;;9.20;1.00;;;;;;5098333;28;20442;-54
2022/04/09 11:55:47;;;;;;;2.43;2.23;;;8.70;1.00;;;;;;5103166;28;20466;-56
2022/04/09 11:58:14;;;;;;;2.70;1.80;;;8.40;1.00;;;;;;5104001;27;20448;-57
2022/04/09 12:00:42;;;;;;;1.90;1.60;;;8.00;1.00;;;;;;5105405;28;20444;-55
2022/04/09 12:03:08;;;;;;;1.60;1.50;;;7.70;1.00;;;;;;5097150;28;20462;-54
2022/04/09 12:05:46;;;;;;;4.60;2.50;;;7.70;1.00;;;;;;5102876;28;20443;-55
2022/04/09 12:08:17;;;;;;;5.33;2.30;;;7.70;1.00;;;;;;5100598;28;20440;-56
2022/04/09 12:10:55;;;;;;;3.90;2.27;;;;;;;;;;5102805;28;20469;-55
2022/04/09 12:13:34;;;;;;;3.00;2.80;;;7.80;1.00;;;;;;5108072;28;21113;-55
2022/04/09 12:16:02;;;;;;;2.67;2.20;;;8.30;1.00;;;;;;5102517;28;20528;-54
2022/04/09 12:18:29;;;;;;;2.70;2.20;;;8.50;1.00;;;;;;5102370;28;20528;-55
2022/04/09 12:20:55;;;;;;;2.80;2.30;;;8.70;1.00;;;;;;5100287;28;20471;-55
2022/04/09 12:23:28;;;;;;;2.00;1.90;;;;;;;;;;5102516;28;20436;-53
2022/04/09 12:25:54;;;;;;;1.70;1.60;;;8.90;1.00;;;;;;5099855;28;20444;-55
2022/04/09 12:28:22;;;;;;;1.73;1.60;;;8.00;1.00;;;;;;5096015;28;20453;-56
2022/04/09 12:30:49;;;;;;;1.47;1.37;;;9.70;1.00;;;;;;5106323;28;20186;-55
2022/04/09 12:33:15;;;;;;;2.20;1.00;;;9.50;1.00;;;;;;5104965;28;20471;-54
2022/04/09 12:35:41;;;;;;;0.80;0.80;;;9.10;1.00;;;;;;5106918;28;20460;-57
2022/04/09 12:38:07;;;;;;;0.80;0.60;;;9.00;1.00;;;;;;5103871;28;20520;-55
2022/04/09 12:40:33;;;;;;;1.10;1.00;;;9.00;1.00;;;;;;5093121;28;20535;-55
2022/04/09 12:43:00;;;;;;;1.23;1.10;;;8.90;1.00;;;;;;5103110;28;20928;-56
2022/04/09 12:45:27;;;;;;;1.23;1.07;;;8.90;1.00;;;;;;5095086;28;20437;-56
2022/04/09 12:48:01;;;;;;;1.23;0.80;;;9.00;1.00;;;;;;5103965;28;20432;-54
2022/04/09 12:50:29;;;;;;;0.83;0.73;;;9.00;1.00;;;;;;5105045;28;20462;-55
2022/04/09 12:53:00;;;;;;;1.43;0.80;;;9.40;1.00;;;;;;5100703;28;20439;-54
2022/04/09 12:55:27;;;;;;;1.00;0.70;;;9.70;1.00;;;;;;5093270;28;20451;-57
2022/04/09 12:57:53;;;;;;;0.93;0.80;;;9.60;1.00;;;;;;5104262;28;20440;-56
2022/04/09 13:00:21;;;;;;;1.00;0.90;;;9.70;1.00;;;;;;5103540;28;20429;-56
2022/04/09 13:02:48;;;;;;;6.77;1.70;;;10.00;1.00;;;;;;5098811;28;20953;-56
2022/04/09 13:05:15;;;;;;;4.50;1.67;;;10.10;1.00;;;;;;5109959;28;20939;-55
2022/04/09 13:07:42;;;;;;;2.03;1.40;;;10.10;1.00;;;;;;5097767;28;20445;-56
2022/04/09 13:10:09;;;;;;;3.07;2.20;;;10.20;1.00;;;;;;5102128;28;20781;-56
2022/04/09 13:12:35;;;;;;;2.60;1.27;;;10.10;1.00;;;;;;5093226;28;20436;-55
2022/04/09 13:15:01;;;;;;;1.90;1.00;;;10.20;1.00;;;;;;5095738;28;20817;-56
2022/04/09 13:17:28;;;;;;;1.30;1.20;;;;;;;;;;5100644;28;20174;-56